Sanikiluaq Airport

Airport
ICAO code: 
CYSK
IATA Code: 
YSK
Summary
ICAO Region: 
NAM
Territory: 
Location: 
Sanikiluaq, Nunavut
Serving: 
Sanikiluaq
Elevation: 
104 ft
Coordinates: 
Aerial View: 
56° 32' 16.119" N, 79° 14' 47.761" W
Metar
Observation
CYSK 262300Z 34005KT 12SM SCT051 M06/M07 A2995 RMK SC4 LAST STFD OBS/NXT 291300Z SLP147
Station
Sanikiluaq Airport
Date/Time
2021-11-26 23:00:00
Lowest cloud amount
n/a
Temperature
°C
Dew point
0°C
Weather condition
n/a

Sanikiluaq Airport is located at Sanikiluaq, Nunavut, Canada, and is operated by the Government of Nunavut. It is one of the few airports in Nunavut that uses magnetic headings for the runway rather than true headings.

Runways

Designator Length Width Surface Rops
9/27 1158 0 UNK No/No
Airport map: 
Aerial View: 

Accidents and Serious Incidents at or in the vicinity of CYSK

SKYbrary Partners:

Safety knowledge contributed by: